Time,TemperatureF,DewpointF,PressureIn,WindDirection,WindDirectionDegrees,WindSpeedMPH,WindSpeedGustMPH,Humidity,HourlyPrecipIn,Conditions,Clouds,dailyrainin,SoftwareType,DateUTC
2013-03-06 00:00:00,59.5,56.3,29.65,SSW,213,5.6,11.5,89,0.00,CLR,,0.03,WeatherDisplay:10.37,2013-03-06 05:00:00,
2013-03-06 00:01:00,59.4,56.2,29.65,SSW,207,5.4,9.2,89,0.00,CLR,,0.03,WeatherDisplay:10.37,2013-03-06 05:01:00,
2013-03-06 00:02:00,59.3,56.1,29.65,South,185,7.8,11.5,89,0.00,CLR,,0.00,WeatherDisplay:10.37,2013-03-06 05:02:00,
2013-03-06 00:07:00,59.0,56.1,29.64,South,186,7.3,18.4,90,0.00,CLR,,0.00,WeatherDisplay:10.37,2013-03-06 05:07:00,
2013-03-06 00:12:00,58.7,56.1,29.64,South,179,6.0,15.0,91,0.00,CLR,,0.00,WeatherDisplay:10.37,2013-03-06 05:12:00,
2013-03-06 00:17:00,58.6,56.0,29.63,South,177,4.9,11.5,91,0.00,CLR,,0.00,WeatherDisplay:10.37,2013-03-06 05:17:00,
2013-03-06 00:23:00,58.7,56.1,29.63,SSW,200,8.7,10.4,91,0.00,CLR,,0.00,WeatherDisplay:10.37,2013-03-06 05:23:00,
2013-03-06 00:28:00,59.0,56.1,29.63,SSW,204,7.6,13.8,90,0.00,CLR,,0.00,WeatherDisplay:10.37,2013-03-06 05:28:00,
2013-03-06 00:33:00,59.0,56.1,29.62,South,186,8.5,16.1,90,0.00,CLR,,0.00,WeatherDisplay:10.37,2013-03-06 05:33:00,
2013-03-06 00:38:00,59.1,56.5,29.62,South,190,4.2,10.4,91,0.00,CLR,,0.00,WeatherDisplay:10.37,2013-03-06 05:38:00,
2013-03-06 00:43:00,59.1,56.8,29.62,SE,139,6.4,8.1,92,0.00,CLR,,0.00,WeatherDisplay:10.37,2013-03-06 05:43:00,
2013-03-06 00:49:00,59.1,56.8,29.62,SSW,200,7.5,13.8,92,0.00,CLR,,0.00,WeatherDisplay:10.37,2013-03-06 05:49:00,
2013-03-06 00:54:00,58.9,56.6,29.62,SW,214,5.9,11.5,92,0.00,CLR,,0.00,WeatherDisplay:10.37,2013-03-06 05:54:00,
2013-03-06 00:59:00,58.5,56.2,29.62,WSW,240,5.5,9.2,92,0.00,CLR,,0.00,WeatherDisplay:10.37,2013-03-06 05:59:00,
2013-03-06 01:04:00,58.6,56.9,29.61,SSW,205,7.8,13.8,94,0.00,CLR,,0.00,WeatherDisplay:10.37,2013-03-06 06:04:00,
2013-03-06 01:09:00,58.6,56.9,29.61,SSW,198,7.1,13.8,94,0.00,CLR,,0.00,WeatherDisplay:10.37,2013-03-06 06:09:00,
2013-03-06 01:14:00,58.6,56.9,29.60,SSW,197,7.1,19.6,94,0.00,CLR,,0.00,WeatherDisplay:10.37,2013-03-06 06:14:00,
2013-03-06 01:19:00,58.5,56.8,29.59,SSW,207,9.8,13.8,94,0.00,CLR,,0.00,WeatherDisplay:10.37,2013-03-06 06:19:00,
2013-03-06 01:25:00,58.5,56.8,29.59,SSW,196,7.4,12.7,94,0.00,CLR,,0.00,WeatherDisplay:10.37,2013-03-06 06:25:00,
2013-03-06 01:30:00,58.4,56.7,29.59,SSW,197,7.3,10.4,94,0.00,CLR,,0.00,WeatherDisplay:10.37,2013-03-06 06:30:00,
2013-03-06 01:35:00,58.6,56.9,29.58,SSW,207,6.2,11.5,94,0.00,CLR,,0.00,WeatherDisplay:10.37,2013-03-06 06:35:00,
2013-03-06 01:40:00,58.6,56.9,29.58,SSW,198,7.1,17.3,94,0.00,CLR,,0.00,WeatherDisplay:10.37,2013-03-06 06:40:00,
2013-03-06 01:45:00,58.5,56.8,29.57,SW,220,7.3,11.5,94,0.00,CLR,,0.00,WeatherDisplay:10.37,2013-03-06 06:45:00,
2013-03-06 01:50:00,58.5,56.8,29.57,SSW,210,7.7,16.1,94,0.00,CLR,,0.00,WeatherDisplay:10.37,2013-03-06 06:50:00,
2013-03-06 01:55:00,58.5,56.8,29.56,South,190,8.4,10.4,94,0.00,CLR,,0.00,WeatherDisplay:10.37,2013-03-06 06:55:00,
2013-03-06 02:01:00,58.7,57.0,29.56,SSW,194,8.0,10.4,94,0.00,CLR,,0.00,WeatherDisplay:10.37,2013-03-06 07:01:00,
2013-03-06 02:06:00,58.8,56.8,29.55,South,185,8.0,13.8,93,0.00,CLR,,0.00,WeatherDisplay:10.37,2013-03-06 07:06:00,
2013-03-06 02:11:00,58.8,56.8,29.55,SSE,166,7.6,14.0,93,0.00,CLR,,0.00,WeatherDisplay:10.37,2013-03-06 07:11:00,
2013-03-06 02:16:00,58.7,56.7,29.54,SSW,203,5.1,11.5,93,0.00,CLR,,0.00,WeatherDisplay:10.37,2013-03-06 07:16:00,
2013-03-06 02:21:00,58.6,56.6,29.53,SSW,208,9.1,18.4,93,0.00,CLR,,0.00,WeatherDisplay:10.37,2013-03-06 07:21:00,
2013-03-06 02:27:00,58.6,56.6,29.53,SW,222,6.9,18.4,93,0.00,CLR,,0.00,WeatherDisplay:10.37,2013-03-06 07:27:00,
2013-03-06 02:32:00,58.6,56.6,29.53,SSW,209,9.0,18.0,93,0.00,CLR,,0.00,WeatherDisplay:10.37,2013-03-06 07:32:00,
2013-03-06 02:37:00,58.6,56.6,29.52,South,176,8.3,12.7,93,0.00,CLR,,0.00,WeatherDisplay:10.37,2013-03-06 07:37:00,
2013-03-06 02:42:00,58.5,56.5,29.52,SW,222,8.0,20.0,93,0.00,CLR,,0.00,WeatherDisplay:10.37,2013-03-06 07:42:00,
2013-03-06 02:47:00,58.5,56.5,29.52,WSW,237,5.7,9.2,93,0.00,CLR,,0.00,WeatherDisplay:10.37,2013-03-06 07:47:00,
2013-03-06 02:52:00,58.3,56.0,29.51,SW,215,6.1,16.1,92,0.00,CLR,,0.00,WeatherDisplay:10.37,2013-03-06 07:52:00,
2013-03-06 02:58:00,58.1,55.8,29.51,SW,227,6.0,10.4,92,0.00,CLR,,0.00,WeatherDisplay:10.37,2013-03-06 07:58:00,
2013-03-06 03:03:00,58.0,55.7,29.51,SSW,213,6.2,10.4,92,0.00,CLR,,0.00,WeatherDisplay:10.37,2013-03-06 08:03:00,
2013-03-06 03:08:00,57.8,55.2,29.50,SSW,213,6.8,8.1,91,0.00,CLR,,0.00,WeatherDisplay:10.37,2013-03-06 08:08:00,
2013-03-06 03:13:00,57.5,55.2,29.50,SW,235,5.2,8.1,92,0.00,CLR,,0.00,WeatherDisplay:10.37,2013-03-06 08:13:00,
2013-03-06 03:19:00,57.3,55.0,29.50,WSW,254,6.1,8.1,92,0.00,CLR,,0.00,WeatherDisplay:10.37,2013-03-06 08:19:00,
2013-03-06 03:24:00,57.1,54.8,29.49,SW,227,6.7,10.4,92,0.00,CLR,,0.00,WeatherDisplay:10.37,2013-03-06 08:24:00,
2013-03-06 03:29:00,56.9,54.6,29.49,SW,236,4.6,8.1,92,0.00,CLR,,0.00,WeatherDisplay:10.37,2013-03-06 08:29:00,
2013-03-06 03:34:00,56.6,54.3,29.49,West,262,4.5,5.8,92,0.00,CLR,,0.00,WeatherDisplay:10.37,2013-03-06 08:34:00,
2013-03-06 03:39:00,56.4,54.1,29.49,West,262,4.5,6.9,92,0.00,CLR,,0.00,WeatherDisplay:10.37,2013-03-06 08:39:00,
2013-03-06 03:44:00,56.2,53.9,29.49,WSW,246,5.0,9.2,92,0.00,CLR,,0.00,WeatherDisplay:10.37,2013-03-06 08:44:00,
2013-03-06 03:49:00,56.1,53.8,29.49,WSW,257,4.6,10.4,92,0.00,CLR,,0.00,WeatherDisplay:10.37,2013-03-06 08:49:00,
2013-03-06 03:54:00,55.9,53.6,29.49,SW,236,4.9,8.1,92,0.00,CLR,,0.00,WeatherDisplay:10.37,2013-03-06 08:54:00,
2013-03-06 04:00:00,55.8,53.5,29.49,SW,236,4.5,5.8,92,0.00,CLR,,0.00,WeatherDisplay:10.37,2013-03-06 09:00:00,
2013-03-06 04:05:00,55.7,53.7,29.49,WSW,246,4.3,6.9,93,0.00,CLR,,0.00,WeatherDisplay:10.37,2013-03-06 09:05:00,
2013-03-06 04:10:00,55.5,53.5,29.50,West,266,3.9,5.8,93,0.00,CLR,,0.00,WeatherDisplay:10.37,2013-03-06 09:10:00,
2013-03-06 04:15:00,55.4,53.4,29.49,West,261,6.0,6.9,93,0.00,CLR,,0.00,WeatherDisplay:10.37,2013-03-06 09:15:00,
2013-03-06 04:20:00,55.3,53.3,29.49,WSW,253,5.2,5.8,93,0.00,CLR,,0.00,WeatherDisplay:10.37,2013-03-06 09:20:00,
2013-03-06 04:26:00,55.2,52.9,29.49,West,267,6.9,11.5,92,0.00,CLR,,0.00,WeatherDisplay:10.37,2013-03-06 09:26:00,
2013-03-06 04:31:00,55.3,53.0,29.49,West,261,4.3,8.1,92,0.00,CLR,,0.00,WeatherDisplay:10.37,2013-03-06 09:31:00,
2013-03-06 04:36:00,55.3,52.7,29.49,West,265,5.8,8.1,91,0.00,CLR,,0.00,WeatherDisplay:10.37,2013-03-06 09:36:00,
2013-03-06 04:41:00,55.3,52.7,29.49,WSW,242,4.6,8.1,91,0.00,CLR,,0.00,WeatherDisplay:10.37,2013-03-06 09:41:00,
2013-03-06 04:47:00,55.4,52.8,29.49,West,278,5.5,8.1,91,0.00,CLR,,0.00,WeatherDisplay:10.37,2013-03-06 09:47:00,
2013-03-06 04:52:00,55.6,53.0,29.49,West,272,6.0,9.0,91,0.00,CLR,,0.00,WeatherDisplay:10.37,2013-03-06 09:52:00,
2013-03-06 04:57:00,55.5,52.6,29.49,West,280,6.6,8.1,90,0.00,CLR,,0.00,WeatherDisplay:10.37,2013-03-06 09:57:00,
2013-03-06 05:02:00,55.4,52.2,29.49,West,266,6.0,10.0,89,0.00,CLR,,0.00,WeatherDisplay:10.37,2013-03-06 10:02:00,
2013-03-06 05:07:00,55.2,51.1,29.49,West,263,8.0,13.0,86,0.00,CLR,,0.00,WeatherDisplay:10.37,2013-03-06 10:07:00,
2013-03-06 05:12:00,55.1,50.3,29.49,West,267,8.0,13.0,84,0.00,CLR,,0.00,WeatherDisplay:10.37,2013-03-06 10:12:00,
2013-03-06 05:17:00,54.9,49.2,29.49,West,275,7.2,11.0,81,0.00,CLR,,0.00,WeatherDisplay:10.37,2013-03-06 10:17:00,
2013-03-06 05:22:00,54.7,48.6,29.50,West,269,4.8,6.9,80,0.00,CLR,,0.00,WeatherDisplay:10.37,2013-03-06 10:22:00,
2013-03-06 05:27:00,54.5,48.5,29.50,West,269,7.5,10.4,80,0.00,CLR,,0.00,WeatherDisplay:10.37,2013-03-06 10:27:00,
2013-03-06 05:32:00,54.5,47.4,29.50,WNW,283,8.1,12.7,77,0.00,CLR,,0.00,WeatherDisplay:10.37,2013-03-06 10:32:00,
2013-03-06 05:38:00,54.3,46.5,29.50,West,261,9.5,18.4,75,0.00,CLR,,0.00,WeatherDisplay:10.37,2013-03-06 10:38:00,
2013-03-06 05:43:00,54.0,46.3,29.50,West,281,7.1,9.2,75,0.00,CLR,,0.00,WeatherDisplay:10.37,2013-03-06 10:43:00,
2013-03-06 05:48:00,53.7,45.6,29.50,West,265,9.6,15.0,74,0.00,CLR,,0.00,WeatherDisplay:10.37,2013-03-06 10:48:00,
2013-03-06 05:53:00,53.4,45.3,29.50,West,265,6.4,10.4,74,0.00,CLR,,0.00,WeatherDisplay:10.37,2013-03-06 10:53:00,
2013-03-06 05:59:00,53.2,45.1,29.50,West,277,6.3,9.2,74,0.00,CLR,,0.00,WeatherDisplay:10.37,2013-03-06 10:59:00,
2013-03-06 06:04:00,52.9,44.8,29.51,West,281,6.9,11.0,74,0.00,CLR,,0.00,WeatherDisplay:10.37,2013-03-06 11:04:00,
2013-03-06 06:09:00,52.6,44.5,29.51,WSW,258,6.3,10.4,74,0.00,CLR,,0.00,WeatherDisplay:10.37,2013-03-06 11:09:00,
2013-03-06 06:14:00,52.3,44.6,29.50,West,263,6.1,8.1,75,0.00,CLR,,0.00,WeatherDisplay:10.37,2013-03-06 11:14:00,
2013-03-06 06:20:00,52.0,44.7,29.51,West,261,6.6,10.4,76,0.00,CLR,,0.00,WeatherDisplay:10.37,2013-03-06 11:20:00,
2013-03-06 06:25:00,51.7,44.4,29.51,West,267,5.0,6.9,76,0.00,CLR,,0.00,WeatherDisplay:10.37,2013-03-06 11:25:00,
2013-03-06 06:30:00,51.4,44.4,29.51,West,270,8.5,10.4,77,0.00,CLR,,0.00,WeatherDisplay:10.37,2013-03-06 11:30:00,
2013-03-06 06:35:00,51.3,44.0,29.51,West,281,9.1,11.5,76,0.00,CLR,,0.00,WeatherDisplay:10.37,2013-03-06 11:35:00,
2013-03-06 06:40:00,51.0,43.7,29.51,West,272,11.2,18.4,76,0.00,CLR,,0.00,WeatherDisplay:10.37,2013-03-06 11:40:00,
2013-03-06 06:45:00,50.7,43.1,29.51,WSW,240,12.0,18.4,75,0.00,CLR,,0.00,WeatherDisplay:10.37,2013-03-06 11:45:00,
2013-03-06 06:51:00,50.6,43.0,29.51,WNW,284,10.2,13.0,75,0.00,CLR,,0.00,WeatherDisplay:10.37,2013-03-06 11:51:00,
2013-03-06 06:56:00,50.4,42.4,29.51,West,269,12.4,18.4,74,0.00,CLR,,0.00,WeatherDisplay:10.37,2013-03-06 11:56:00,
2013-03-06 07:01:00,50.3,42.3,29.52,WNW,283,14.2,18.4,74,0.00,CLR,,0.00,WeatherDisplay:10.37,2013-03-06 12:01:00,
2013-03-06 07:06:00,50.1,41.8,29.52,West,276,12.4,17.3,73,0.00,CLR,,0.00,WeatherDisplay:10.37,2013-03-06 12:06:00,
2013-03-06 07:11:00,50.0,42.0,29.52,WNW,286,11.6,15.0,74,0.00,CLR,,0.00,WeatherDisplay:10.37,2013-03-06 12:11:00,
2013-03-06 07:17:00,49.9,41.6,29.52,WNW,284,15.0,26.0,73,0.00,CLR,,0.00,WeatherDisplay:10.37,2013-03-06 12:17:00,
2013-03-06 07:22:00,49.7,41.7,29.52,WNW,282,10.0,22.0,74,0.00,CLR,,0.00,WeatherDisplay:10.37,2013-03-06 12:22:00,
2013-03-06 07:27:00,49.4,41.8,29.53,WNW,292,12.8,18.4,75,0.00,CLR,,0.00,WeatherDisplay:10.37,2013-03-06 12:27:00,
2013-03-06 07:32:00,49.1,41.5,29.53,West,277,15.9,23.0,75,0.00,CLR,,0.00,WeatherDisplay:10.37,2013-03-06 12:32:00,
2013-03-06 07:37:00,48.6,41.4,29.53,West,264,16.4,21.9,76,0.00,CLR,,0.00,WeatherDisplay:10.37,2013-03-06 12:37:00,
2013-03-06 07:42:00,47.7,40.8,29.54,WNW,288,14.4,27.6,77,0.00,CLR,,0.00,WeatherDisplay:10.37,2013-03-06 12:42:00,
2013-03-06 07:48:00,47.1,40.6,29.54,WNW,286,19.3,23.0,78,0.00,CLR,,0.00,WeatherDisplay:10.37,2013-03-06 12:48:00,
2013-03-06 07:53:00,46.9,40.4,29.54,WNW,288,11.9,17.3,78,0.00,CLR,,0.00,WeatherDisplay:10.37,2013-03-06 12:53:00,
2013-03-06 07:58:00,46.9,41.1,29.55,WNW,282,9.4,12.7,80,0.00,CLR,,0.00,WeatherDisplay:10.37,2013-03-06 12:58:00,
2013-03-06 08:03:00,46.8,40.6,29.55,West,260,9.2,17.3,79,0.00,CLR,,0.00,WeatherDisplay:10.37,2013-03-06 13:03:00,
2013-03-06 08:08:00,46.6,40.4,29.55,West,278,10.7,19.6,79,0.00,CLR,,0.00,WeatherDisplay:10.37,2013-03-06 13:08:00,
2013-03-06 08:14:00,46.4,40.6,29.55,West,276,7.5,11.5,80,0.00,CLR,,0.00,WeatherDisplay:10.37,2013-03-06 13:14:00,
2013-03-06 08:19:00,46.2,40.4,29.56,NW,315,12.7,18.4,80,0.00,CLR,,0.00,WeatherDisplay:10.37,2013-03-06 13:19:00,
2013-03-06 08:24:00,46.0,40.5,29.56,WNW,284,8.5,12.7,81,0.00,CLR,,0.00,WeatherDisplay:10.37,2013-03-06 13:24:00,
2013-03-06 08:29:00,45.8,40.3,29.56,WNW,286,15.2,20.7,81,0.00,CLR,,0.00,WeatherDisplay:10.37,2013-03-06 13:29:00,
2013-03-06 08:35:00,45.5,40.3,29.57,West,279,9.2,12.7,82,0.00,CLR,,0.00,WeatherDisplay:10.37,2013-03-06 13:35:00,
2013-03-06 08:40:00,45.4,39.9,29.57,WNW,302,13.0,18.4,81,0.00,CLR,,0.00,WeatherDisplay:10.37,2013-03-06 13:40:00,
2013-03-06 08:45:00,45.1,38.3,29.57,WNW,290,16.6,25.3,77,0.00,CLR,,0.00,WeatherDisplay:10.37,2013-03-06 13:45:00,
2013-03-06 08:50:00,45.0,37.2,29.58,NW,307,21.0,26.5,74,0.00,CLR,,0.00,WeatherDisplay:10.37,2013-03-06 13:50:00,
2013-03-06 08:55:00,44.9,37.1,29.58,NW,311,16.8,19.6,74,0.00,CLR,,0.00,WeatherDisplay:10.37,2013-03-06 13:55:00,
2013-03-06 09:00:00,45.1,37.3,29.58,NW,319,19.2,24.2,74,0.00,CLR,,0.00,WeatherDisplay:10.37,2013-03-06 14:00:00,
2013-03-06 09:05:00,45.2,38.1,29.58,WNW,293,9.6,12.0,76,0.00,CLR,,0.00,WeatherDisplay:10.37,2013-03-06 14:05:00,
2013-03-06 09:11:00,45.4,37.6,29.58,WNW,296,17.9,23.0,74,0.00,CLR,,0.00,WeatherDisplay:10.37,2013-03-06 14:11:00,
2013-03-06 09:16:00,44.8,37.0,29.58,NW,308,15.7,19.6,74,0.00,CLR,,0.00,WeatherDisplay:10.37,2013-03-06 14:16:00,
2013-03-06 09:21:00,44.3,36.5,29.59,NW,306,15.4,21.9,74,0.00,CLR,,0.00,WeatherDisplay:10.37,2013-03-06 14:21:00,
2013-03-06 09:26:00,44.1,37.0,29.59,NW,304,11.5,15.0,76,0.00,CLR,,0.00,WeatherDisplay:10.37,2013-03-06 14:26:00,
2013-03-06 09:31:00,43.6,37.5,29.60,NW,321,10.4,14.0,79,0.00,CLR,,0.00,WeatherDisplay:10.37,2013-03-06 14:31:00,
2013-03-06 09:36:00,42.6,38.1,29.61,WNW,295,15.2,20.7,84,0.00,CLR,,0.00,WeatherDisplay:10.37,2013-03-06 14:36:00,
2013-03-06 09:42:00,42.0,38.1,29.61,WNW,302,8.0,22.0,86,0.00,CLR,,0.00,WeatherDisplay:10.37,2013-03-06 14:42:00,
2013-03-06 09:47:00,41.6,38.3,29.61,WNW,289,8.1,11.5,88,0.00,CLR,,0.00,WeatherDisplay:10.37,2013-03-06 14:47:00,
2013-03-06 09:52:00,41.6,38.6,29.60,WNW,293,11.5,15.0,89,0.00,CLR,,0.00,WeatherDisplay:10.37,2013-03-06 14:52:00,
2013-03-06 09:57:00,41.8,37.9,29.60,WNW,292,18.2,20.7,86,0.00,CLR,,0.00,WeatherDisplay:10.37,2013-03-06 14:57:00,
2013-03-06 10:03:00,42.4,37.6,29.60,WNW,302,18.4,23.0,83,0.00,CLR,,0.00,WeatherDisplay:10.37,2013-03-06 15:03:00,
2013-03-06 10:08:00,43.0,37.6,29.60,West,275,16.3,23.0,81,0.00,CLR,,0.00,WeatherDisplay:10.37,2013-03-06 15:08:00,
2013-03-06 10:13:00,43.4,37.0,29.60,NW,314,21.4,25.0,78,0.00,CLR,,0.00,WeatherDisplay:10.37,2013-03-06 15:13:00,
2013-03-06 10:18:00,43.9,37.2,29.60,WNW,297,15.8,24.0,77,0.00,CLR,,0.00,WeatherDisplay:10.37,2013-03-06 15:18:00,
2013-03-06 10:23:00,44.8,36.7,29.60,WNW,292,15.3,21.9,73,0.00,CLR,,0.00,WeatherDisplay:10.37,2013-03-06 15:23:00,
2013-03-06 10:29:00,45.3,36.8,29.60,WNW,297,12.7,17.3,72,0.00,CLR,,0.00,WeatherDisplay:10.37,2013-03-06 15:29:00,
2013-03-06 10:34:00,45.6,36.4,29.59,WNW,296,16.3,26.5,70,0.00,CLR,,0.00,WeatherDisplay:10.37,2013-03-06 15:34:00,
2013-03-06 10:39:00,46.4,36.4,29.59,West,279,13.1,16.1,68,0.00,CLR,,0.00,WeatherDisplay:10.37,2013-03-06 15:39:00,
2013-03-06 10:44:00,46.1,36.1,29.59,WNW,289,15.7,21.0,68,0.00,CLR,,0.00,WeatherDisplay:10.37,2013-03-06 15:44:00,
2013-03-06 10:49:00,45.6,34.9,29.59,NW,304,16.1,24.2,66,0.00,CLR,,0.00,WeatherDisplay:10.37,2013-03-06 15:49:00,
2013-03-06 10:54:00,45.6,34.9,29.59,WNW,290,9.4,16.1,66,0.00,CLR,,0.00,WeatherDisplay:10.37,2013-03-06 15:54:00,
2013-03-06 10:59:00,45.7,33.8,29.59,West,275,12.6,23.0,63,0.00,CLR,,0.00,WeatherDisplay:10.37,2013-03-06 15:59:00,
2013-03-06 11:05:00,45.8,34.7,29.59,WNW,290,9.9,16.1,65,0.00,CLR,,0.00,WeatherDisplay:10.37,2013-03-06 16:05:00,
2013-03-06 11:10:00,46.2,35.1,29.59,WNW,283,12.4,16.0,65,0.00,CLR,,0.00,WeatherDisplay:10.37,2013-03-06 16:10:00,
2013-03-06 11:15:00,46.1,34.2,29.59,NW,309,12.8,19.6,63,0.00,CLR,,0.00,WeatherDisplay:10.37,2013-03-06 16:15:00,
2013-03-06 11:20:00,46.8,34.5,29.59,WNW,301,14.2,21.9,62,0.00,CLR,,0.00,WeatherDisplay:10.37,2013-03-06 16:20:00,
2013-03-06 11:25:00,46.7,33.1,29.59,WNW,289,18.7,27.6,59,0.00,CLR,,0.00,WeatherDisplay:10.37,2013-03-06 16:25:00,
2013-03-06 11:31:00,46.1,33.4,29.59,WNW,288,13.5,18.4,61,0.00,CLR,,0.00,WeatherDisplay:10.37,2013-03-06 16:31:00,
2013-03-06 11:36:00,45.9,32.4,29.59,West,272,18.0,20.7,59,0.00,CLR,,0.00,WeatherDisplay:10.37,2013-03-06 16:36:00,
2013-03-06 11:41:00,46.4,32.8,29.59,WNW,300,17.2,23.0,59,0.00,CLR,,0.00,WeatherDisplay:10.37,2013-03-06 16:41:00,
2013-03-06 11:46:00,47.2,34.4,29.59,WNW,300,14.1,19.6,61,0.00,CLR,,0.00,WeatherDisplay:10.37,2013-03-06 16:46:00,
2013-03-06 11:52:00,47.6,34.4,29.59,WNW,295,14.0,24.0,60,0.00,CLR,,0.00,WeatherDisplay:10.37,2013-03-06 16:52:00,
2013-03-06 11:57:00,48.0,33.5,29.59,WNW,302,18.2,20.7,57,0.00,CLR,,0.00,WeatherDisplay:10.37,2013-03-06 16:57:00,
2013-03-06 12:02:00,46.9,32.4,29.59,WNW,294,17.8,24.2,57,0.00,CLR,,0.00,WeatherDisplay:10.37,2013-03-06 17:02:00,
2013-03-06 12:07:00,46.5,32.9,29.59,WNW,283,12.9,17.3,59,0.00,CLR,,0.00,WeatherDisplay:10.37,2013-03-06 17:07:00,
2013-03-06 12:12:00,46.2,33.1,29.59,West,279,10.1,17.3,60,0.00,CLR,,0.00,WeatherDisplay:10.37,2013-03-06 17:12:00,
2013-03-06 12:17:00,46.3,33.2,29.59,West,274,11.7,18.4,60,0.00,CLR,,0.00,WeatherDisplay:10.37,2013-03-06 17:17:00,
2013-03-06 12:22:00,46.3,31.9,29.59,NW,306,13.8,25.3,57,0.00,CLR,,0.00,WeatherDisplay:10.37,2013-03-06 17:22:00,
2013-03-06 12:28:00,46.4,32.4,29.59,WNW,303,18.2,23.0,58,0.00,CLR,,0.00,WeatherDisplay:10.37,2013-03-06 17:28:00,
2013-03-06 12:33:00,45.8,31.9,29.59,West,261,15.5,20.7,58,0.00,CLR,,0.00,WeatherDisplay:10.37,2013-03-06 17:33:00,
2013-03-06 12:38:00,45.8,31.9,29.59,WNW,302,20.9,28.8,58,0.00,CLR,,0.00,WeatherDisplay:10.37,2013-03-06 17:38:00,
2013-03-06 12:43:00,45.8,31.4,29.58,NW,313,23.7,26.5,57,0.00,CLR,,0.00,WeatherDisplay:10.37,2013-03-06 17:43:00,
2013-03-06 12:48:00,46.1,32.6,29.59,WSW,255,15.6,17.3,59,0.00,CLR,,0.00,WeatherDisplay:10.37,2013-03-06 17:48:00,
2013-03-06 12:54:00,46.5,32.9,29.58,WNW,287,12.5,16.1,59,0.00,CLR,,0.00,WeatherDisplay:10.37,2013-03-06 17:54:00,
2013-03-06 12:59:00,47.3,32.8,29.58,WNW,286,13.9,17.3,57,0.00,CLR,,0.00,WeatherDisplay:10.37,2013-03-06 17:59:00,
2013-03-06 13:04:00,47.4,31.6,29.58,WSW,257,14.7,25.3,54,0.00,CLR,,0.00,WeatherDisplay:10.37,2013-03-06 18:04:00,
2013-03-06 13:09:00,47.3,31.5,29.57,NW,310,21.3,25.3,54,0.00,CLR,,0.00,WeatherDisplay:10.37,2013-03-06 18:09:00,
2013-03-06 13:14:00,46.9,31.6,29.58,WNW,300,16.2,24.2,55,0.00,CLR,,0.00,WeatherDisplay:10.37,2013-03-06 18:14:00,
2013-03-06 13:19:00,46.5,31.2,29.58,WNW,293,16.9,26.5,55,0.00,CLR,,0.00,WeatherDisplay:10.37,2013-03-06 18:19:00,
2013-03-06 13:25:00,46.5,32.1,29.57,West,280,11.1,13.8,57,0.00,CLR,,0.00,WeatherDisplay:10.37,2013-03-06 18:25:00,
2013-03-06 13:30:00,46.6,32.2,29.57,WNW,291,16.1,24.2,57,0.00,CLR,,0.00,WeatherDisplay:10.37,2013-03-06 18:30:00,
2013-03-06 13:35:00,46.8,31.0,29.57,WNW,300,13.6,21.9,54,0.00,CLR,,0.00,WeatherDisplay:10.37,2013-03-06 18:35:00,
2013-03-06 13:40:00,46.5,30.7,29.57,WNW,288,17.9,31.1,54,0.00,CLR,,0.00,WeatherDisplay:10.37,2013-03-06 18:40:00,
2013-03-06 13:46:00,46.6,31.7,29.57,West,281,12.8,15.0,56,0.00,CLR,,0.00,WeatherDisplay:10.37,2013-03-06 18:46:00,
2013-03-06 13:51:00,47.0,32.1,29.56,WNW,300,17.4,21.9,56,0.00,CLR,,0.00,WeatherDisplay:10.37,2013-03-06 18:51:00,
2013-03-06 13:56:00,47.6,31.8,29.57,WNW,297,16.9,25.3,54,0.00,CLR,,0.00,WeatherDisplay:10.37,2013-03-06 18:56:00,
2013-03-06 14:01:00,47.5,31.2,29.57,NW,304,20.5,26.5,53,0.00,CLR,,0.00,WeatherDisplay:10.37,2013-03-06 19:01:00,
2013-03-06 14:06:00,47.1,31.3,29.57,WNW,290,24.3,29.9,54,0.00,CLR,,0.00,WeatherDisplay:10.37,2013-03-06 19:06:00,
2013-03-06 14:11:00,47.0,30.7,29.57,WNW,294,18.6,26.5,53,0.00,CLR,,0.00,WeatherDisplay:10.37,2013-03-06 19:11:00,
2013-03-06 14:16:00,46.9,30.6,29.57,NNW,337,18.1,21.9,53,0.00,CLR,,0.00,WeatherDisplay:10.37,2013-03-06 19:16:00,
2013-03-06 14:22:00,46.6,30.4,29.57,WNW,301,24.0,32.0,53,0.00,CLR,,0.00,WeatherDisplay:10.37,2013-03-06 19:22:00,
2013-03-06 14:27:00,46.3,30.5,29.57,WNW,288,18.6,24.2,54,0.00,CLR,,0.00,WeatherDisplay:10.37,2013-03-06 19:27:00,
2013-03-06 14:32:00,46.3,31.4,29.57,West,272,12.9,18.0,56,0.00,CLR,,0.00,WeatherDisplay:10.37,2013-03-06 19:32:00,
2013-03-06 14:37:00,46.3,31.0,29.57,NW,309,19.5,27.6,55,0.00,CLR,,0.00,WeatherDisplay:10.37,2013-03-06 19:37:00,
2013-03-06 14:42:00,46.7,31.8,29.57,WNW,298,21.3,27.6,56,0.00,CLR,,0.00,WeatherDisplay:10.37,2013-03-06 19:42:00,
2013-03-06 14:47:00,46.4,31.5,29.58,WNW,300,20.7,25.3,56,0.00,CLR,,0.00,WeatherDisplay:10.37,2013-03-06 19:47:00,
2013-03-06 14:52:00,45.9,31.5,29.58,WNW,303,24.3,28.8,57,0.00,CLR,,0.00,WeatherDisplay:10.37,2013-03-06 19:52:00,
2013-03-06 14:57:00,45.6,31.2,29.58,WNW,303,16.2,26.5,57,0.00,CLR,,0.00,WeatherDisplay:10.37,2013-03-06 19:57:00,
2013-03-06 15:03:00,45.7,31.3,29.57,WNW,288,20.0,26.5,57,0.00,CLR,,0.00,WeatherDisplay:10.37,2013-03-06 20:03:00,
2013-03-06 15:08:00,45.8,31.0,29.57,WNW,292,15.7,25.3,56,0.00,CLR,,0.00,WeatherDisplay:10.37,2013-03-06 20:08:00,
2013-03-06 15:13:00,45.9,31.9,29.58,NW,313,13.9,17.3,58,0.00,CLR,,0.00,WeatherDisplay:10.37,2013-03-06 20:13:00,
2013-03-06 15:18:00,46.1,31.3,29.58,WNW,294,19.3,26.5,56,0.00,CLR,,0.00,WeatherDisplay:10.37,2013-03-06 20:18:00,
2013-03-06 15:23:00,46.1,31.3,29.58,NW,311,19.9,23.0,56,0.00,CLR,,0.00,WeatherDisplay:10.37,2013-03-06 20:23:00,
2013-03-06 15:29:00,46.1,31.3,29.58,WNW,284,17.4,25.3,56,0.00,CLR,,0.00,WeatherDisplay:10.37,2013-03-06 20:29:00,
2013-03-06 15:34:00,46.2,31.4,29.58,WNW,294,23.2,31.1,56,0.00,CLR,,0.00,WeatherDisplay:10.37,2013-03-06 20:34:00,
2013-03-06 15:39:00,46.4,32.0,29.58,WNW,292,20.3,24.0,57,0.00,CLR,,0.00,WeatherDisplay:10.37,2013-03-06 20:39:00,
2013-03-06 15:44:00,46.5,32.1,29.58,WNW,283,19.2,20.0,57,0.00,CLR,,0.00,WeatherDisplay:10.37,2013-03-06 20:44:00,
2013-03-06 15:50:00,46.5,32.1,29.58,WNW,293,18.7,23.0,57,0.00,CLR,,0.00,WeatherDisplay:10.37,2013-03-06 20:50:00,
2013-03-06 15:55:00,46.4,32.0,29.58,WNW,302,22.0,32.2,57,0.00,CLR,,0.00,WeatherDisplay:10.37,2013-03-06 20:55:00,
2013-03-06 16:00:00,46.3,31.9,29.58,WNW,296,17.0,21.9,57,0.00,CLR,,0.00,WeatherDisplay:10.37,2013-03-06 21:00:00,
2013-03-06 16:05:00,46.1,31.7,29.58,WNW,294,20.3,26.5,57,0.00,CLR,,0.00,WeatherDisplay:10.37,2013-03-06 21:05:00,
2013-03-06 16:11:00,45.9,31.5,29.58,NW,306,25.1,32.2,57,0.00,,,0.00,WeatherDisplay:10.37,2013-03-06 21:11:00,
2013-03-06 16:16:00,45.8,31.9,29.59,WNW,286,20.9,26.5,58,0.00,CLR,,0.00,WeatherDisplay:10.37,2013-03-06 21:16:00,
2013-03-06 16:21:00,45.8,32.3,29.60,WNW,303,19.9,32.2,59,0.00,CLR,,0.00,WeatherDisplay:10.37,2013-03-06 21:21:00,
2013-03-06 16:27:00,45.8,33.1,29.60,NW,311,25.0,35.0,61,0.00,CLR,,0.00,WeatherDisplay:10.37,2013-03-06 21:27:00,
2013-03-06 16:32:00,45.7,33.4,29.60,NW,313,21.0,33.0,62,0.00,CLR,,0.00,WeatherDisplay:10.37,2013-03-06 21:32:00,
2013-03-06 16:37:00,45.7,33.8,29.61,NW,307,14.8,18.4,63,0.00,CLR,,0.00,WeatherDisplay:10.37,2013-03-06 21:37:00,
2013-03-06 16:42:00,45.6,33.7,29.61,NW,305,27.8,34.5,63,0.00,CLR,,0.00,WeatherDisplay:10.37,2013-03-06 21:42:00,
2013-03-06 16:47:00,45.6,34.1,29.61,NW,316,19.2,24.2,64,0.00,CLR,,0.00,WeatherDisplay:10.37,2013-03-06 21:47:00,
2013-03-06 16:52:00,45.5,34.8,29.62,NW,316,15.6,24.2,66,0.00,CLR,,0.00,WeatherDisplay:10.37,2013-03-06 21:52:00,
2013-03-06 16:58:00,45.2,35.3,29.62,NNW,338,22.3,34.5,68,0.00,CLR,,0.00,WeatherDisplay:10.37,2013-03-06 21:58:00,
2013-03-06 17:03:00,45.0,35.4,29.63,NW,310,28.6,35.7,69,0.00,,,0.00,WeatherDisplay:10.37,2013-03-06 22:03:00,
2013-03-06 17:08:00,45.0,35.8,29.63,NW,306,26.4,34.5,70,0.00,CLR,,0.00,WeatherDisplay:10.37,2013-03-06 22:08:00,
2013-03-06 17:13:00,44.9,35.7,29.63,NW,306,29.9,39.1,70,0.00,,,0.00,WeatherDisplay:10.37,2013-03-06 22:13:00,
2013-03-06 17:19:00,44.9,35.7,29.64,NW,315,29.7,34.5,70,0.00,,,0.00,WeatherDisplay:10.37,2013-03-06 22:19:00,
2013-03-06 17:24:00,44.8,36.0,29.64,WNW,299,26.6,35.7,71,0.00,,,0.00,WeatherDisplay:10.37,2013-03-06 22:24:00,
2013-03-06 17:29:00,44.7,35.9,29.64,NW,314,16.0,31.1,71,0.00,CLR,,0.00,WeatherDisplay:10.37,2013-03-06 22:29:00,
2013-03-06 17:34:00,44.6,35.8,29.65,NW,320,24.0,26.0,71,0.00,CLR,,0.00,WeatherDisplay:10.37,2013-03-06 22:34:00,
2013-03-06 17:39:00,44.6,36.1,29.65,NW,316,26.4,36.8,72,0.00,,,0.00,WeatherDisplay:10.37,2013-03-06 22:39:00,
2013-03-06 17:45:00,44.4,35.9,29.66,NW,322,22.2,29.9,72,0.00,CLR,,0.00,WeatherDisplay:10.37,2013-03-06 22:45:00,
2013-03-06 17:50:00,44.3,36.2,29.66,NNW,334,30.7,36.8,73,0.00,CLR,,0.00,WeatherDisplay:10.37,2013-03-06 22:50:00,
2013-03-06 17:55:00,44.2,36.1,29.67,NW,308,26.2,34.0,73,0.00,CLR,,0.00,WeatherDisplay:10.37,2013-03-06 22:55:00,
2013-03-06 18:00:00,44.0,36.2,29.67,NW,319,27.2,40.3,74,0.00,CLR,,0.00,WeatherDisplay:10.37,2013-03-06 23:00:00,
2013-03-06 18:06:00,43.7,36.3,29.67,NW,315,31.5,35.7,75,0.00,,,0.00,WeatherDisplay:10.37,2013-03-06 23:06:00,
2013-03-06 18:11:00,43.6,36.5,29.68,NW,319,23.4,34.5,76,0.00,CLR,,0.00,WeatherDisplay:10.37,2013-03-06 23:11:00,
2013-03-06 18:16:00,43.3,36.9,29.69,NNW,333,21.7,27.6,78,0.00,CLR,,0.00,WeatherDisplay:10.37,2013-03-06 23:16:00,
2013-03-06 18:21:00,43.2,36.8,29.68,NNW,329,23.6,31.1,78,0.01,RA,,0.01,WeatherDisplay:10.37,2013-03-06 23:21:00,
2013-03-06 18:26:00,43.2,36.5,29.69,WNW,296,25.9,33.4,77,0.01,RA,,0.01,WeatherDisplay:10.37,2013-03-06 23:26:00,
2013-03-06 18:32:00,43.3,36.6,29.70,NW,320,23.0,31.0,77,0.00,,,0.01,WeatherDisplay:10.37,2013-03-06 23:32:00,
2013-03-06 18:37:00,43.2,36.8,29.71,North,349,17.9,27.6,78,0.01,CLR,,0.01,WeatherDisplay:10.37,2013-03-06 23:37:00,
2013-03-06 18:42:00,43.1,36.7,29.71,NNW,335,28.5,36.8,78,0.01,CLR,,0.01,WeatherDisplay:10.37,2013-03-06 23:42:00,
2013-03-06 18:47:00,42.9,36.5,29.72,NW,321,26.8,34.5,78,0.01,,,0.01,WeatherDisplay:10.37,2013-03-06 23:47:00,
2013-03-06 18:52:00,42.5,36.4,29.72,NW,314,26.3,34.5,79,0.01,CLR,,0.01,WeatherDisplay:10.37,2013-03-06 23:52:00,
2013-03-06 18:58:00,42.3,36.9,29.73,NNW,328,24.7,27.6,81,0.01,CLR,,0.01,WeatherDisplay:10.37,2013-03-06 23:58:00,
2013-03-06 19:03:00,41.9,36.8,29.73,NW,321,20.9,26.5,82,0.01,CLR,,0.01,WeatherDisplay:10.37,2013-03-07 00:03:00,
2013-03-06 19:08:00,41.8,37.0,29.74,NNW,331,21.7,34.0,83,0.01,,,0.01,WeatherDisplay:10.37,2013-03-07 00:08:00,
2013-03-06 19:13:00,41.7,36.6,29.74,NNW,331,20.0,24.2,82,0.01,CLR,,0.01,WeatherDisplay:10.37,2013-03-07 00:13:00,
2013-03-06 19:19:00,41.9,36.8,29.74,NW,324,20.8,26.5,82,0.00,,,0.01,WeatherDisplay:10.37,2013-03-07 00:19:00,
2013-03-06 19:24:00,42.0,36.6,29.75,NNW,336,25.6,37.0,81,0.00,CLR,,0.01,WeatherDisplay:10.37,2013-03-07 00:24:00,
2013-03-06 19:29:00,42.1,36.7,29.75,NW,315,20.6,29.9,81,0.00,CLR,,0.01,WeatherDisplay:10.37,2013-03-07 00:29:00,
2013-03-06 19:34:00,42.0,36.6,29.75,NNW,342,27.4,31.1,81,0.00,CLR,,0.01,WeatherDisplay:10.37,2013-03-07 00:34:00,
2013-03-06 19:39:00,42.1,36.7,29.75,NW,317,19.6,34.5,81,0.00,CLR,,0.01,WeatherDisplay:10.37,2013-03-07 00:39:00,
2013-03-06 19:45:00,42.2,36.5,29.75,NNW,327,25.1,31.1,80,0.00,CLR,,0.01,WeatherDisplay:10.37,2013-03-07 00:45:00,
2013-03-06 19:50:00,42.2,36.2,29.76,NW,323,29.9,44.9,79,0.00,CLR,,0.01,WeatherDisplay:10.37,2013-03-07 00:50:00,
2013-03-06 19:55:00,42.3,36.3,29.76,NW,313,23.3,28.8,79,0.00,CLR,,0.01,WeatherDisplay:10.37,2013-03-07 00:55:00,
2013-03-06 20:00:00,42.3,36.6,29.77,NNW,331,17.6,24.0,80,0.00,CLR,,0.01,WeatherDisplay:10.37,2013-03-07 01:00:00,
2013-03-06 20:06:00,42.4,36.3,29.76,North,355,21.4,41.4,79,0.00,CLR,,0.01,WeatherDisplay:10.37,2013-03-07 01:06:00,
2013-03-06 20:11:00,42.4,36.3,29.77,NW,319,23.4,31.1,79,0.00,CLR,,0.01,WeatherDisplay:10.37,2013-03-07 01:11:00,
2013-03-06 20:16:00,42.4,36.3,29.77,NW,315,25.9,32.2,79,0.00,CLR,,0.01,WeatherDisplay:10.37,2013-03-07 01:16:00,
2013-03-06 20:21:00,42.4,36.3,29.78,NW,326,21.8,29.9,79,0.00,CLR,,0.01,WeatherDisplay:10.37,2013-03-07 01:21:00,
2013-03-06 20:26:00,42.3,36.3,29.78,NNW,337,27.2,34.5,79,0.00,CLR,,0.01,WeatherDisplay:10.37,2013-03-07 01:26:00,
2013-03-06 20:32:00,42.2,36.1,29.78,NNW,333,22.0,36.0,79,0.00,CLR,,0.01,WeatherDisplay:10.37,2013-03-07 01:32:00,
2013-03-06 20:37:00,42.1,36.1,29.78,WNW,302,23.7,28.0,79,0.00,CLR,,0.01,WeatherDisplay:10.37,2013-03-07 01:37:00,
2013-03-06 20:42:00,42.1,36.1,29.79,NNW,333,16.8,29.0,79,0.00,CLR,,0.01,WeatherDisplay:10.37,2013-03-07 01:42:00,
2013-03-06 20:47:00,42.0,36.0,29.80,North,360,20.1,34.5,79,0.00,CLR,,0.01,WeatherDisplay:10.37,2013-03-07 01:47:00,
2013-03-06 20:52:00,42.0,36.0,29.80,NW,321,20.3,24.2,79,0.00,CLR,,0.01,WeatherDisplay:10.37,2013-03-07 01:52:00,
2013-03-06 20:57:00,42.0,36.0,29.80,NW,321,20.6,24.2,79,0.00,CLR,,0.01,WeatherDisplay:10.37,2013-03-07 01:57:00,
2013-03-06 21:03:00,42.0,35.6,29.80,NNW,330,19.4,27.6,78,0.00,CLR,,0.01,WeatherDisplay:10.37,2013-03-07 02:03:00,
2013-03-06 21:08:00,42.1,36.1,29.81,NW,317,17.1,21.9,79,0.00,CLR,,0.01,WeatherDisplay:10.37,2013-03-07 02:08:00,
2013-03-06 21:13:00,42.2,35.8,29.82,NW,322,16.7,19.6,78,0.00,CLR,,0.01,WeatherDisplay:10.37,2013-03-07 02:13:00,
2013-03-06 21:19:00,42.3,35.9,29.82,NNW,340,21.1,26.5,78,0.00,CLR,,0.01,WeatherDisplay:10.37,2013-03-07 02:19:00,
2013-03-06 21:24:00,42.4,36.0,29.83,NNW,341,18.4,28.8,78,0.00,CLR,,0.01,WeatherDisplay:10.37,2013-03-07 02:24:00,
2013-03-06 21:29:00,42.4,36.0,29.83,NNW,327,20.8,33.4,78,0.00,CLR,,0.01,WeatherDisplay:10.37,2013-03-07 02:29:00,
2013-03-06 21:34:00,42.4,37.6,29.83,NW,317,18.2,25.3,83,0.00,CLR,,0.01,WeatherDisplay:10.37,2013-03-07 02:34:00,
2013-03-06 21:39:00,42.4,36.3,29.84,NW,323,18.5,24.2,79,0.00,CLR,,0.01,WeatherDisplay:10.37,2013-03-07 02:39:00,
2013-03-06 21:44:00,42.5,36.4,29.84,NW,319,21.6,25.3,79,0.00,CLR,,0.01,WeatherDisplay:10.37,2013-03-07 02:44:00,
2013-03-06 21:50:00,42.6,36.2,29.84,NW,319,20.2,25.3,78,0.00,CLR,,0.01,WeatherDisplay:10.37,2013-03-07 02:50:00,
2013-03-06 21:55:00,42.7,36.3,29.85,NNW,337,20.9,28.8,78,0.00,CLR,,0.01,WeatherDisplay:10.37,2013-03-07 02:55:00,
2013-03-06 22:00:00,42.8,36.4,29.84,NNW,339,29.2,34.5,78,0.00,CLR,,0.01,WeatherDisplay:10.37,2013-03-07 03:00:00,
2013-03-06 22:05:00,42.9,36.5,29.85,NW,324,17.9,24.0,78,0.00,CLR,,0.01,WeatherDisplay:10.37,2013-03-07 03:05:00,
2013-03-06 22:10:00,42.8,36.4,29.85,North,350,14.8,21.9,78,0.00,CLR,,0.01,WeatherDisplay:10.37,2013-03-07 03:10:00,
2013-03-06 22:15:00,42.8,36.4,29.85,NW,320,15.4,19.6,78,0.00,CLR,,0.01,WeatherDisplay:10.37,2013-03-07 03:15:00,
2013-03-06 22:21:00,42.7,36.3,29.86,NNW,338,11.5,16.1,78,0.00,CLR,,0.01,WeatherDisplay:10.37,2013-03-07 03:21:00,
2013-03-06 22:26:00,42.7,36.6,29.86,NNW,335,14.1,18.4,79,0.00,CLR,,0.01,WeatherDisplay:10.37,2013-03-07 03:26:00,
2013-03-06 22:31:00,42.6,36.5,29.85,NW,323,13.9,18.4,79,0.00,CLR,,0.01,WeatherDisplay:10.37,2013-03-07 03:31:00,
2013-03-06 22:36:00,42.5,36.4,29.86,NNW,327,16.0,24.2,79,0.00,CLR,,0.01,WeatherDisplay:10.37,2013-03-07 03:36:00,
2013-03-06 22:42:00,42.5,36.8,29.86,NNW,329,15.1,23.0,80,0.00,CLR,,0.01,WeatherDisplay:10.37,2013-03-07 03:42:00,
2013-03-06 22:47:00,42.4,36.7,29.86,NW,324,14.0,22.0,80,0.00,CLR,,0.01,WeatherDisplay:10.37,2013-03-07 03:47:00,
2013-03-06 22:52:00,42.3,36.6,29.86,NW,325,16.0,24.0,80,0.00,CLR,,0.01,WeatherDisplay:10.37,2013-03-07 03:52:00,
2013-03-06 22:57:00,42.3,36.6,29.86,NNW,331,14.1,19.6,80,0.00,CLR,,0.01,WeatherDisplay:10.37,2013-03-07 03:57:00,
2013-03-06 23:02:00,42.3,36.6,29.87,NNW,329,13.3,21.9,80,0.00,CLR,,0.01,WeatherDisplay:10.37,2013-03-07 04:02:00,
2013-03-06 23:07:00,42.3,36.6,29.87,NW,320,11.3,17.3,80,0.00,CLR,,0.01,WeatherDisplay:10.37,2013-03-07 04:07:00,
2013-03-06 23:13:00,42.3,36.6,29.87,NW,325,14.5,19.6,80,0.00,CLR,,0.01,WeatherDisplay:10.37,2013-03-07 04:13:00,
2013-03-06 23:18:00,42.3,36.6,29.87,NNW,329,16.2,19.6,80,0.00,CLR,,0.01,WeatherDisplay:10.37,2013-03-07 04:18:00,
2013-03-06 23:23:00,42.3,36.6,29.87,NNW,335,14.4,16.1,80,0.00,CLR,,0.01,WeatherDisplay:10.37,2013-03-07 04:23:00,
2013-03-06 23:28:00,42.3,36.6,29.87,NNW,333,20.5,26.5,80,0.00,CLR,,0.01,WeatherDisplay:10.37,2013-03-07 04:28:00,
2013-03-06 23:33:00,42.3,36.3,29.87,NNW,329,15.5,22.0,79,0.00,CLR,,0.01,WeatherDisplay:10.37,2013-03-07 04:33:00,
2013-03-06 23:39:00,42.4,36.7,29.87,NW,325,15.3,21.9,80,0.00,CLR,,0.01,WeatherDisplay:10.37,2013-03-07 04:39:00,
2013-03-06 23:44:00,42.4,36.3,29.87,NNW,338,16.9,25.3,79,0.00,CLR,,0.01,WeatherDisplay:10.37,2013-03-07 04:44:00,
2013-03-06 23:49:00,42.4,36.3,29.88,NNW,343,15.1,18.4,79,0.00,CLR,,0.01,WeatherDisplay:10.37,2013-03-07 04:49:00,
2013-03-06 23:54:00,42.4,36.3,29.88,NNW,348,12.9,27.6,79,0.00,CLR,,0.01,WeatherDisplay:10.37,2013-03-07 04:54:00,
2013-03-06 23:59:00,42.5,36.4,29.88,NNW,343,14.3,15.0,79,0.00,CLR,,0.01,WeatherDisplay:10.37,2013-03-07 04:59:00,